sensor_id;sensor_type;location;lat;lon;timestamp;pressure;altitude;pressure_sealevel;temperature;humidity
72038;BME280;59900;50.788;12.904;2023-08-06T00:01:50;96701.97;;;16.45;83.41
72038;BME280;59900;50.788;12.904;2023-08-06T00:04:15;96702.47;;;16.42;83.74
72038;BME280;59900;50.788;12.904;2023-08-06T00:06:41;96695.84;;;16.45;84.46
72038;BME280;59900;50.788;12.904;2023-08-06T00:09:06;96693.78;;;16.47;85.04
72038;BME280;59900;50.788;12.904;2023-08-06T00:11:31;96695.63;;;16.46;85.35
72038;BME280;59900;50.788;12.904;2023-08-06T00:13:56;96698.50;;;16.45;84.95
72038;BME280;59900;50.788;12.904;2023-08-06T00:16:22;96696.34;;;16.42;84.52
72038;BME280;59900;50.788;12.904;2023-08-06T00:18:47;96691.06;;;16.42;84.40
72038;BME280;59900;50.788;12.904;2023-08-06T00:21:12;96693.97;;;16.40;84.32
72038;BME280;59900;50.788;12.904;2023-08-06T00:23:38;96705.63;;;16.39;84.71
72038;BME280;59900;50.788;12.904;2023-08-06T00:26:03;96706.16;;;16.41;85.21
72038;BME280;59900;50.788;12.904;2023-08-06T00:28:29;96701.13;;;16.40;84.62
72038;BME280;59900;50.788;12.904;2023-08-06T00:30:57;96707.47;;;16.39;83.78
72038;BME280;59900;50.788;12.904;2023-08-06T00:33:23;96705.09;;;16.37;83.35
72038;BME280;59900;50.788;12.904;2023-08-06T00:35:49;96692.34;;;16.34;83.49
72038;BME280;59900;50.788;12.904;2023-08-06T00:38:14;96699.22;;;16.35;83.82
72038;BME280;59900;50.788;12.904;2023-08-06T00:40:40;96696.88;;;16.39;83.66
72038;BME280;59900;50.788;12.904;2023-08-06T00:43:05;96695.53;;;16.36;83.36
72038;BME280;59900;50.788;12.904;2023-08-06T00:45:37;96695.47;;;16.31;84.04
72038;BME280;59900;50.788;12.904;2023-08-06T00:48:07;96694.66;;;16.25;83.97
72038;BME280;59900;50.788;12.904;2023-08-06T00:50:35;96696.38;;;16.15;84.09
72038;BME280;59900;50.788;12.904;2023-08-06T00:53:00;96695.31;;;16.11;84.33
72038;BME280;59900;50.788;12.904;2023-08-06T00:55:26;96695.25;;;16.06;84.51
72038;BME280;59900;50.788;12.904;2023-08-06T00:57:52;96689.66;;;16.02;84.07
72038;BME280;59900;50.788;12.904;2023-08-06T01:00:22;96686.44;;;16.00;84.58
72038;BME280;59900;50.788;12.904;2023-08-06T01:02:48;96687.56;;;16.04;84.54
72038;BME280;59900;50.788;12.904;2023-08-06T01:05:14;96683.38;;;16.08;84.63
72038;BME280;59900;50.788;12.904;2023-08-06T01:13:41;96686.84;;;16.14;86.17
72038;BME280;59900;50.788;12.904;2023-08-06T01:16:09;96691.34;;;16.13;86.23
72038;BME280;59900;50.788;12.904;2023-08-06T01:18:35;96693.19;;;16.13;85.38
72038;BME280;59900;50.788;12.904;2023-08-06T01:21:02;96691.09;;;16.15;85.30
72038;BME280;59900;50.788;12.904;2023-08-06T01:23:28;96690.03;;;16.16;85.18
72038;BME280;59900;50.788;12.904;2023-08-06T01:28:32;96693.22;;;16.18;85.71
72038;BME280;59900;50.788;12.904;2023-08-06T01:31:01;96690.81;;;16.11;85.53
72038;BME280;59900;50.788;12.904;2023-08-06T01:33:33;96690.25;;;16.09;85.51
72038;BME280;59900;50.788;12.904;2023-08-06T01:36:01;96691.53;;;16.07;86.00
72038;BME280;59900;50.788;12.904;2023-08-06T01:38:27;96678.00;;;16.03;85.96
72038;BME280;59900;50.788;12.904;2023-08-06T01:40:53;96679.84;;;16.03;86.39
72038;BME280;59900;50.788;12.904;2023-08-06T01:43:18;96670.81;;;15.99;86.26
72038;BME280;59900;50.788;12.904;2023-08-06T01:45:49;96672.97;;;16.02;86.83
72038;BME280;59900;50.788;12.904;2023-08-06T01:48:14;96665.50;;;15.99;86.99
72038;BME280;59900;50.788;12.904;2023-08-06T01:50:42;96662.81;;;15.94;86.79
72038;BME280;59900;50.788;12.904;2023-08-06T01:53:07;96659.56;;;15.87;86.89
72038;BME280;59900;50.788;12.904;2023-08-06T01:55:36;96664.84;;;15.87;86.83
72038;BME280;59900;50.788;12.904;2023-08-06T01:58:01;96659.25;;;15.83;87.52
72038;BME280;59900;50.788;12.904;2023-08-06T02:00:26;96661.66;;;15.85;87.70
72038;BME280;59900;50.788;12.904;2023-08-06T02:02:53;96651.84;;;15.85;88.11
72038;BME280;59900;50.788;12.904;2023-08-06T02:05:19;96653.41;;;15.81;87.62
72038;BME280;59900;50.788;12.904;2023-08-06T02:07:44;96654.44;;;15.80;88.05
72038;BME280;59900;50.788;12.904;2023-08-06T02:10:12;96654.44;;;15.80;87.92
72038;BME280;59900;50.788;12.904;2023-08-06T02:12:37;96644.94;;;15.79;87.68
72038;BME280;59900;50.788;12.904;2023-08-06T02:15:03;96640.63;;;15.73;87.60
72038;BME280;59900;50.788;12.904;2023-08-06T02:17:34;96637.66;;;15.69;88.47
72038;BME280;59900;50.788;12.904;2023-08-06T02:20:00;96636.31;;;15.67;88.62
72038;BME280;59900;50.788;12.904;2023-08-06T02:22:28;96634.16;;;15.64;88.47
72038;BME280;59900;50.788;12.904;2023-08-06T02:24:54;96630.72;;;15.63;88.47
72038;BME280;59900;50.788;12.904;2023-08-06T02:27:19;96620.34;;;15.62;88.62
72038;BME280;59900;50.788;12.904;2023-08-06T02:29:44;96614.53;;;15.60;88.18
72038;BME280;59900;50.788;12.904;2023-08-06T02:32:10;96613.47;;;15.61;88.65
72038;BME280;59900;50.788;12.904;2023-08-06T02:34:35;96611.34;;;15.58;88.62
72038;BME280;59900;50.788;12.904;2023-08-06T02:37:03;96616.38;;;15.59;88.53
72038;BME280;59900;50.788;12.904;2023-08-06T02:39:28;96615.81;;;15.57;88.65
72038;BME280;59900;50.788;12.904;2023-08-06T02:41:54;96614.47;;;15.55;88.33
72038;BME280;59900;50.788;12.904;2023-08-06T02:44:19;96607.56;;;15.54;87.62
72038;BME280;59900;50.788;12.904;2023-08-06T02:46:47;96603.88;;;15.55;87.47
72038;BME280;59900;50.788;12.904;2023-08-06T02:49:15;96610.22;;;15.54;87.67
72038;BME280;59900;50.788;12.904;2023-08-06T02:51:46;96598.28;;;15.51;87.55
72038;BME280;59900;50.788;12.904;2023-08-06T02:54:12;96604.88;;;15.49;87.88
72038;BME280;59900;50.788;12.904;2023-08-06T02:56:37;96602.69;;;15.46;88.02
72038;BME280;59900;50.788;12.904;2023-08-06T02:59:03;96603.75;;;15.45;88.36
72038;BME280;59900;50.788;12.904;2023-08-06T03:01:31;96603.44;;;15.41;88.34
72038;BME280;59900;50.788;12.904;2023-08-06T03:03:56;96596.56;;;15.40;87.78
72038;BME280;59900;50.788;12.904;2023-08-06T03:06:22;96593.06;;;15.35;88.25
72038;BME280;59900;50.788;12.904;2023-08-06T03:08:47;96603.06;;;15.33;88.35
72038;BME280;59900;50.788;12.904;2023-08-06T03:11:14;96602.53;;;15.31;88.31
72038;BME280;59900;50.788;12.904;2023-08-06T03:13:40;96598.84;;;15.32;88.88
72038;BME280;59900;50.788;12.904;2023-08-06T03:16:05;96588.25;;;15.32;88.64
72038;BME280;59900;50.788;12.904;2023-08-06T03:18:30;96594.34;;;15.32;89.05
72038;BME280;59900;50.788;12.904;2023-08-06T03:20:55;96591.13;;;15.30;89.14
72038;BME280;59900;50.788;12.904;2023-08-06T03:23:22;96585.59;;;15.32;89.51
72038;BME280;59900;50.788;12.904;2023-08-06T03:25:47;96587.94;;;15.28;89.47
72038;BME280;59900;50.788;12.904;2023-08-06T03:28:12;96586.09;;;15.29;90.03
72038;BME280;59900;50.788;12.904;2023-08-06T03:30:38;96575.75;;;15.27;89.65
72038;BME280;59900;50.788;12.904;2023-08-06T03:33:03;96576.81;;;15.26;90.32
72038;BME280;59900;50.788;12.904;2023-08-06T03:35:31;96574.66;;;15.23;90.25
72038;BME280;59900;50.788;12.904;2023-08-06T03:37:59;96571.44;;;15.21;90.99
72038;BME280;59900;50.788;12.904;2023-08-06T03:40:25;96568.25;;;15.19;90.90
72038;BME280;59900;50.788;12.904;2023-08-06T03:42:52;96574.59;;;15.18;90.60
72038;BME280;59900;50.788;12.904;2023-08-06T03:45:18;96565.63;;;15.19;91.03
72038;BME280;59900;50.788;12.904;2023-08-06T03:47:43;96568.25;;;15.19;91.30
72038;BME280;59900;50.788;12.904;2023-08-06T03:50:08;96569.06;;;15.20;90.83
72038;BME280;59900;50.788;12.904;2023-08-06T03:52:34;96564.25;;;15.17;91.52
72038;BME280;59900;50.788;12.904;2023-08-06T03:55:02;96553.41;;;15.18;91.48
72038;BME280;59900;50.788;12.904;2023-08-06T03:57:33;96552.06;;;15.15;91.86
72038;BME280;59900;50.788;12.904;2023-08-06T04:00:06;96556.56;;;15.15;91.90
72038;BME280;59900;50.788;12.904;2023-08-06T04:02:32;96557.63;;;15.14;92.56
72038;BME280;59900;50.788;12.904;2023-08-06T04:04:57;96551.75;;;15.12;92.98
72038;BME280;59900;50.788;12.904;2023-08-06T04:07:24;96540.09;;;15.08;93.43
72038;BME280;59900;50.788;12.904;2023-08-06T04:09:58;96547.47;;;15.06;93.96
72038;BME280;59900;50.788;12.904;2023-08-06T04:12:23;96542.13;;;15.01;95.06
72038;BME280;59900;50.788;12.904;2023-08-06T04:14:50;96548.97;;;14.97;95.26
72038;BME280;59900;50.788;12.904;2023-08-06T04:17:21;96539.06;;;14.87;96.22
72038;BME280;59900;50.788;12.904;2023-08-06T04:19:54;96548.22;;;14.80;96.98
72038;BME280;59900;50.788;12.904;2023-08-06T04:22:24;96546.53;;;14.74;97.67
72038;BME280;59900;50.788;12.904;2023-08-06T04:24:49;96544.41;;;14.71;98.58
72038;BME280;59900;50.788;12.904;2023-08-06T04:27:15;96546.50;;;14.69;99.49
72038;BME280;59900;50.788;12.904;2023-08-06T04:29:42;96544.84;;;14.63;100.00
72038;BME280;59900;50.788;12.904;2023-08-06T04:32:08;96541.38;;;14.62;100.00
72038;BME280;59900;50.788;12.904;2023-08-06T04:34:35;96538.72;;;14.62;100.00
72038;BME280;59900;50.788;12.904;2023-08-06T04:37:04;96541.09;;;14.58;100.00
72038;BME280;59900;50.788;12.904;2023-08-06T04:39:32;96545.31;;;14.59;100.00
72038;BME280;59900;50.788;12.904;2023-08-06T04:41:58;96543.66;;;14.53;100.00
72038;BME280;59900;50.788;12.904;2023-08-06T04:44:23;96532.78;;;14.50;100.00
72038;BME280;59900;50.788;12.904;2023-08-06T04:46:49;96538.06;;;14.50;100.00
72038;BME280;59900;50.788;12.904;2023-08-06T04:49:14;96537.75;;;14.46;100.00
72038;BME280;59900;50.788;12.904;2023-08-06T04:51:40;96545.91;;;14.45;100.00
72038;BME280;59900;50.788;12.904;2023-08-06T04:54:05;96537.66;;;14.41;99.13
72038;BME280;59900;50.788;12.904;2023-08-06T04:56:30;96540.31;;;14.41;99.32
72038;BME280;59900;50.788;12.904;2023-08-06T04:58:57;96534.47;;;14.39;99.49
72038;BME280;59900;50.788;12.904;2023-08-06T05:01:22;96535.50;;;14.38;98.82
72038;BME280;59900;50.788;12.904;2023-08-06T05:03:48;96533.94;;;14.37;97.93
72038;BME280;59900;50.788;12.904;2023-08-06T05:06:13;96537.88;;;14.35;97.57
72038;BME280;59900;50.788;12.904;2023-08-06T05:08:40;96540.75;;;14.33;97.64
72038;BME280;59900;50.788;12.904;2023-08-06T05:11:06;96539.34;;;14.31;97.80
72038;BME280;59900;50.788;12.904;2023-08-06T05:13:34;96535.91;;;14.30;97.02
72038;BME280;59900;50.788;12.904;2023-08-06T05:15:59;96533.75;;;14.27;96.66
72038;BME280;59900;50.788;12.904;2023-08-06T05:18:24;96528.94;;;14.24;96.53
72038;BME280;59900;50.788;12.904;2023-08-06T05:20:49;96524.78;;;14.28;96.71
72038;BME280;59900;50.788;12.904;2023-08-06T05:23:15;96524.53;;;14.30;96.72
72038;BME280;59900;50.788;12.904;2023-08-06T05:25:40;96530.06;;;14.28;96.29
72038;BME280;59900;50.788;12.904;2023-08-06T05:28:05;96516.16;;;14.33;96.46
72038;BME280;59900;50.788;12.904;2023-08-06T05:30:31;96519.66;;;14.38;96.28
72038;BME280;59900;50.788;12.904;2023-08-06T05:32:56;96520.22;;;14.40;96.08
72038;BME280;59900;50.788;12.904;2023-08-06T05:35:22;96515.25;;;14.44;96.68
72038;BME280;59900;50.788;12.904;2023-08-06T05:37:47;96512.69;;;14.49;96.19
72038;BME280;59900;50.788;12.904;2023-08-06T05:40:13;96514.03;;;14.51;96.34
72038;BME280;59900;50.788;12.904;2023-08-06T05:42:41;96520.44;;;14.55;96.51
72038;BME280;59900;50.788;12.904;2023-08-06T05:45:07;96515.19;;;14.61;96.49
72038;BME280;59900;50.788;12.904;2023-08-06T05:47:32;96516.00;;;14.61;96.43
72038;BME280;59900;50.788;12.904;2023-08-06T05:49:58;96517.34;;;14.64;96.29
72038;BME280;59900;50.788;12.904;2023-08-06T05:52:23;96513.69;;;14.65;96.02
72038;BME280;59900;50.788;12.904;2023-08-06T05:54:48;96509.16;;;14.65;95.76
72038;BME280;59900;50.788;12.904;2023-08-06T05:57:13;96507.09;;;14.67;96.26
72038;BME280;59900;50.788;12.904;2023-08-06T05:59:40;96511.81;;;14.65;96.63
72038;BME280;59900;50.788;12.904;2023-08-06T06:02:05;96498.34;;;14.67;97.14
72038;BME280;59900;50.788;12.904;2023-08-06T06:04:31;96504.19;;;14.69;97.11
72038;BME280;59900;50.788;12.904;2023-08-06T06:06:56;96502.88;;;14.71;97.75
72038;BME280;59900;50.788;12.904;2023-08-06T06:09:24;96509.53;;;14.74;97.36
72038;BME280;59900;50.788;12.904;2023-08-06T06:11:49;96508.00;;;14.78;97.64
72038;BME280;59900;50.788;12.904;2023-08-06T06:14:18;96512.25;;;14.79;97.18
72038;BME280;59900;50.788;12.904;2023-08-06T06:16:44;96507.00;;;14.84;97.17
72038;BME280;59900;50.788;12.904;2023-08-06T06:19:10;96507.38;;;14.92;97.36
72038;BME280;59900;50.788;12.904;2023-08-06T06:21:36;96505.03;;;14.96;97.02
72038;BME280;59900;50.788;12.904;2023-08-06T06:24:03;96497.41;;;14.99;96.98
72038;BME280;59900;50.788;12.904;2023-08-06T06:26:30;96497.19;;;15.06;96.81
72038;BME280;59900;50.788;12.904;2023-08-06T06:28:55;96492.47;;;15.08;96.51
72038;BME280;59900;50.788;12.904;2023-08-06T06:31:20;96485.59;;;15.12;97.10
72038;BME280;59900;50.788;12.904;2023-08-06T06:33:46;96487.75;;;15.15;96.21
72038;BME280;59900;50.788;12.904;2023-08-06T06:36:11;96490.91;;;15.12;95.75
72038;BME280;59900;50.788;12.904;2023-08-06T06:38:36;96489.84;;;15.13;95.33
72038;BME280;59900;50.788;12.904;2023-08-06T06:41:02;96495.16;;;15.13;94.90
72038;BME280;59900;50.788;12.904;2023-08-06T06:43:28;96487.25;;;15.18;95.25
72038;BME280;59900;50.788;12.904;2023-08-06T06:45:58;96486.75;;;15.21;95.24
72038;BME280;59900;50.788;12.904;2023-08-06T06:48:28;96493.16;;;15.25;95.50
72038;BME280;59900;50.788;12.904;2023-08-06T06:50:54;96490.50;;;15.25;95.51
72038;BME280;59900;50.788;12.904;2023-08-06T06:53:20;96484.09;;;15.21;95.69
72038;BME280;59900;50.788;12.904;2023-08-06T06:55:45;96490.47;;;15.20;94.77
72038;BME280;59900;50.788;12.904;2023-08-06T06:58:14;96489.16;;;15.23;95.17
72038;BME280;59900;50.788;12.904;2023-08-06T07:00:39;96489.97;;;15.23;94.48
72038;BME280;59900;50.788;12.904;2023-08-06T07:03:04;96481.75;;;15.25;95.35
72038;BME280;59900;50.788;12.904;2023-08-06T07:05:30;96485.75;;;15.27;95.11
72038;BME280;59900;50.788;12.904;2023-08-06T07:07:55;96487.38;;;15.28;94.39
72038;BME280;59900;50.788;12.904;2023-08-06T07:10:20;96477.28;;;15.25;95.06
72038;BME280;59900;50.788;12.904;2023-08-06T07:12:45;96487.88;;;15.25;94.75
72038;BME280;59900;50.788;12.904;2023-08-06T07:15:11;96486.06;;;15.31;94.56
72038;BME280;59900;50.788;12.904;2023-08-06T07:17:36;96488.16;;;15.29;94.11
72038;BME280;59900;50.788;12.904;2023-08-06T07:20:02;96490.56;;;15.30;93.72
72038;BME280;59900;50.788;12.904;2023-08-06T07:22:31;96486.88;;;15.31;93.66
72038;BME280;59900;50.788;12.904;2023-08-06T07:24:56;96486.31;;;15.29;93.75
72038;BME280;59900;50.788;12.904;2023-08-06T07:27:21;96486.06;;;15.31;93.81
72038;BME280;59900;50.788;12.904;2023-08-06T07:29:46;96490.31;;;15.32;93.87
72038;BME280;59900;50.788;12.904;2023-08-06T07:32:13;96483.44;;;15.36;94.54
72038;BME280;59900;50.788;12.904;2023-08-06T07:34:38;96482.16;;;15.38;94.85
72038;BME280;59900;50.788;12.904;2023-08-06T07:37:04;96490.09;;;15.38;94.30
72038;BME280;59900;50.788;12.904;2023-08-06T07:39:29;96490.09;;;15.38;94.78
72038;BME280;59900;50.788;12.904;2023-08-06T07:41:55;96485.59;;;15.39;94.00
72038;BME280;59900;50.788;12.904;2023-08-06T07:44:20;96479.75;;;15.37;94.65
72038;BME280;59900;50.788;12.904;2023-08-06T07:46:45;96479.75;;;15.37;95.62
72038;BME280;59900;50.788;12.904;2023-08-06T07:49:10;96468.91;;;15.38;95.44
72038;BME280;59900;50.788;12.904;2023-08-06T07:51:36;96473.69;;;15.41;95.68
72038;BME280;59900;50.788;12.904;2023-08-06T07:54:01;96470.56;;;15.44;95.57
72038;BME280;59900;50.788;12.904;2023-08-06T07:56:27;96473.75;;;15.46;94.82
72038;BME280;59900;50.788;12.904;2023-08-06T07:58:52;96476.97;;;15.48;95.64
72038;BME280;59900;50.788;12.904;2023-08-06T08:01:17;96466.69;;;15.52;96.06
72038;BME280;59900;50.788;12.904;2023-08-06T08:03:42;96470.91;;;15.53;95.35
72038;BME280;59900;50.788;12.904;2023-08-06T08:06:08;96468.06;;;15.59;95.93
72038;BME280;59900;50.788;12.904;2023-08-06T08:08:33;96462.81;;;15.64;95.19
72038;BME280;59900;50.788;12.904;2023-08-06T08:11:02;96467.59;;;15.67;94.83
72038;BME280;59900;50.788;12.904;2023-08-06T08:13:28;96460.75;;;15.72;94.51
72038;BME280;59900;50.788;12.904;2023-08-06T08:16:00;96460.50;;;15.73;93.61
72038;BME280;59900;50.788;12.904;2023-08-06T08:18:26;96458.94;;;15.77;92.70
72038;BME280;59900;50.788;12.904;2023-08-06T08:20:51;96457.63;;;15.80;93.42
72038;BME280;59900;50.788;12.904;2023-08-06T08:23:16;96469.56;;;15.82;92.22
72038;BME280;59900;50.788;12.904;2023-08-06T08:25:42;96459.50;;;15.84;92.01
72038;BME280;59900;50.788;12.904;2023-08-06T08:28:07;96459.53;;;15.89;92.76
72038;BME280;59900;50.788;12.904;2023-08-06T08:30:32;96457.97;;;15.93;92.05
72038;BME280;59900;50.788;12.904;2023-08-06T08:32:58;96454.25;;;15.94;91.40
72038;BME280;59900;50.788;12.904;2023-08-06T08:35:23;96444.75;;;15.93;90.54
72038;BME280;59900;50.788;12.904;2023-08-06T08:37:48;96450.84;;;15.94;90.53
72038;BME280;59900;50.788;12.904;2023-08-06T08:40:14;96454.25;;;15.89;90.47
72038;BME280;59900;50.788;12.904;2023-08-06T08:42:40;96449.16;;;15.83;90.94
72038;BME280;59900;50.788;12.904;2023-08-06T08:45:12;96451.56;;;15.84;91.59
72038;BME280;59900;50.788;12.904;2023-08-06T08:47:40;96443.09;;;15.87;92.47
72038;BME280;59900;50.788;12.904;2023-08-06T08:50:06;96436.53;;;15.95;91.31
72038;BME280;59900;50.788;12.904;2023-08-06T08:52:33;96438.97;;;16.06;91.70
72038;BME280;59900;50.788;12.904;2023-08-06T08:55:01;96436.38;;;16.11;90.56
72038;BME280;59900;50.788;12.904;2023-08-06T08:57:26;96431.38;;;16.20;91.20
72038;BME280;59900;50.788;12.904;2023-08-06T08:59:52;96439.34;;;16.30;90.21
72038;BME280;59900;50.788;12.904;2023-08-06T09:02:17;96433.03;;;16.36;89.17
72038;BME280;59900;50.788;12.904;2023-08-06T09:04:46;96439.66;;;16.34;88.77
72038;BME280;59900;50.788;12.904;2023-08-06T09:07:16;96445.22;;;16.37;87.86
72038;BME280;59900;50.788;12.904;2023-08-06T09:09:43;96438.84;;;16.38;87.49
72038;BME280;59900;50.788;12.904;2023-08-06T09:12:16;96446.84;;;16.43;87.48
72038;BME280;59900;50.788;12.904;2023-08-06T09:14:42;96443.91;;;16.40;86.82
72038;BME280;59900;50.788;12.904;2023-08-06T09:17:08;96440.16;;;16.36;86.50
72038;BME280;59900;50.788;12.904;2023-08-06T09:19:35;96439.66;;;16.39;87.40
72038;BME280;59900;50.788;12.904;2023-08-06T09:22:01;96443.41;;;16.48;87.01
72038;BME280;59900;50.788;12.904;2023-08-06T09:24:26;96432.88;;;16.58;87.57
72038;BME280;59900;50.788;12.904;2023-08-06T09:26:52;96430.25;;;16.63;85.56
72038;BME280;59900;50.788;12.904;2023-08-06T09:29:18;96436.63;;;16.72;86.23
72038;BME280;59900;50.788;12.904;2023-08-06T09:31:45;96447.25;;;16.82;86.45
72038;BME280;59900;50.788;12.904;2023-08-06T09:34:18;96431.34;;;16.77;84.57
72038;BME280;59900;50.788;12.904;2023-08-06T09:36:51;96432.66;;;16.74;83.53
72038;BME280;59900;50.788;12.904;2023-08-06T09:39:18;96428.69;;;16.77;83.94
72038;BME280;59900;50.788;12.904;2023-08-06T09:41:45;96424.47;;;16.86;84.21
72038;BME280;59900;50.788;12.904;2023-08-06T09:46:41;96420.50;;;16.99;83.19
72038;BME280;59900;50.788;12.904;2023-08-06T09:49:07;96422.88;;;16.95;82.10
72038;BME280;59900;50.788;12.904;2023-08-06T09:51:34;96416.00;;;16.99;81.78
72038;BME280;59900;50.788;12.904;2023-08-06T09:54:00;96414.69;;;17.02;82.21
72038;BME280;59900;50.788;12.904;2023-08-06T09:56:26;96411.50;;;17.10;82.92
72038;BME280;59900;50.788;12.904;2023-08-06T09:58:52;96404.84;;;17.17;81.83
72038;BME280;59900;50.788;12.904;2023-08-06T10:01:19;96398.75;;;17.22;80.08
72038;BME280;59900;50.788;12.904;2023-08-06T10:03:45;96401.94;;;17.19;80.25
72038;BME280;59900;50.788;12.904;2023-08-06T10:06:12;96401.94;;;17.24;80.37
72038;BME280;59900;50.788;12.904;2023-08-06T10:08:38;96406.72;;;17.27;80.71
72038;BME280;59900;50.788;12.904;2023-08-06T10:11:04;96401.94;;;17.24;80.54
72038;BME280;59900;50.788;12.904;2023-08-06T10:13:31;96390.28;;;17.25;79.05
72038;BME280;59900;50.788;12.904;2023-08-06T10:15:57;96389.75;;;17.28;79.55
72038;BME280;59900;50.788;12.904;2023-08-06T10:18:22;96393.19;;;17.33;79.95
72038;BME280;59900;50.788;12.904;2023-08-06T10:20:51;96386.00;;;17.24;78.80
72038;BME280;59900;50.788;12.904;2023-08-06T10:23:17;96396.09;;;17.27;78.13
72038;BME280;59900;50.788;12.904;2023-08-06T10:25:53;96377.78;;;17.25;78.52
72038;BME280;59900;50.788;12.904;2023-08-06T10:28:22;96384.97;;;17.40;79.95
72038;BME280;59900;50.788;12.904;2023-08-06T10:30:47;96379.91;;;17.49;78.46
72038;BME280;59900;50.788;12.904;2023-08-06T10:33:13;96370.06;;;17.49;76.11
72038;BME280;59900;50.788;12.904;2023-08-06T10:38:31;96384.69;;;17.57;77.29
72038;BME280;59900;50.788;12.904;2023-08-06T10:43:26;96367.97;;;17.46;76.01
72038;BME280;59900;50.788;12.904;2023-08-06T10:45:52;96364.22;;;17.47;77.19
72038;BME280;59900;50.788;12.904;2023-08-06T10:48:44;96364.22;;;17.52;77.74
72038;BME280;59900;50.788;12.904;2023-08-06T10:51:12;96367.94;;;17.51;76.69
72038;BME280;59900;50.788;12.904;2023-08-06T10:53:43;96363.97;;;17.49;76.49
72038;BME280;59900;50.788;12.904;2023-08-06T10:56:16;96362.63;;;17.51;77.58
72038;BME280;59900;50.788;12.904;2023-08-06T10:58:47;96357.63;;;17.55;76.73
72038;BME280;59900;50.788;12.904;2023-08-06T11:01:13;96359.16;;;17.51;77.78
72038;BME280;59900;50.788;12.904;2023-08-06T11:03:40;96354.97;;;17.55;77.84
72038;BME280;59900;50.788;12.904;2023-08-06T11:06:10;96349.66;;;17.55;76.39
72038;BME280;59900;50.788;12.904;2023-08-06T11:08:37;96348.28;;;17.62;76.81
72038;BME280;59900;50.788;12.904;2023-08-06T11:11:10;96342.19;;;17.62;75.71
72038;BME280;59900;50.788;12.904;2023-08-06T11:13:38;96346.16;;;17.69;75.66
72038;BME280;59900;50.788;12.904;2023-08-06T11:16:05;96336.81;;;17.82;76.75
72038;BME280;59900;50.788;12.904;2023-08-06T11:18:31;96334.66;;;17.94;76.16
72038;BME280;59900;50.788;12.904;2023-08-06T11:21:01;96333.03;;;18.08;75.88
72038;BME280;59900;50.788;12.904;2023-08-06T11:23:27;96325.53;;;18.15;74.44
72038;BME280;59900;50.788;12.904;2023-08-06T11:25:54;96327.59;;;18.23;72.90
72038;BME280;59900;50.788;12.904;2023-08-06T11:28:19;96322.06;;;18.20;72.18
72038;BME280;59900;50.788;12.904;2023-08-06T11:30:46;96324.72;;;18.20;72.54
72038;BME280;59900;50.788;12.904;2023-08-06T11:33:12;96314.56;;;18.27;71.56
72038;BME280;59900;50.788;12.904;2023-08-06T11:35:37;96320.66;;;18.37;72.00
72038;BME280;59900;50.788;12.904;2023-08-06T11:38:03;96317.69;;;18.39;70.43
72038;BME280;59900;50.788;12.904;2023-08-06T11:40:28;96310.78;;;18.43;69.99
72038;BME280;59900;50.788;12.904;2023-08-06T11:42:53;96308.63;;;18.45;69.84
72038;BME280;59900;50.788;12.904;2023-08-06T11:45:22;96300.63;;;18.50;70.96
72038;BME280;59900;50.788;12.904;2023-08-06T11:47:53;96305.69;;;18.52;71.15
72038;BME280;59900;50.788;12.904;2023-08-06T11:50:27;96303.19;;;18.65;71.34
72038;BME280;59900;50.788;12.904;2023-08-06T11:52:57;96302.66;;;18.68;69.44
72038;BME280;59900;50.788;12.904;2023-08-06T11:55:24;96306.38;;;18.67;69.00
72038;BME280;59900;50.788;12.904;2023-08-06T11:57:50;96301.81;;;18.73;69.13
72038;BME280;59900;50.788;12.904;2023-08-06T12:00:15;96300.44;;;18.80;67.75
72038;BME280;59900;50.788;12.904;2023-08-06T12:02:44;96310.97;;;18.90;68.66
72038;BME280;59900;50.788;12.904;2023-08-06T12:05:18;96300.59;;;18.94;68.10
72038;BME280;59900;50.788;12.904;2023-08-06T12:07:51;96293.84;;;19.07;67.65
72038;BME280;59900;50.788;12.904;2023-08-06T12:10:17;96295.88;;;19.15;67.51
72038;BME280;59900;50.788;12.904;2023-08-06T12:12:44;96289.91;;;19.28;67.29
72038;BME280;59900;50.788;12.904;2023-08-06T12:15:10;96290.53;;;19.48;67.61
72038;BME280;59900;50.788;12.904;2023-08-06T12:17:36;96288.56;;;19.59;65.15
72038;BME280;59900;50.788;12.904;2023-08-06T12:20:05;96294.63;;;19.65;65.11
72038;BME280;59900;50.788;12.904;2023-08-06T12:22:31;96290.88;;;19.66;64.92
72038;BME280;59900;50.788;12.904;2023-08-06T12:25:05;96283.13;;;19.69;62.98
72038;BME280;59900;50.788;12.904;2023-08-06T12:27:38;96285.44;;;19.52;63.10
72038;BME280;59900;50.788;12.904;2023-08-06T12:30:06;96278.78;;;19.49;63.79
72038;BME280;59900;50.788;12.904;2023-08-06T12:32:33;96276.34;;;19.53;63.19
72038;BME280;59900;50.788;12.904;2023-08-06T12:34:59;96281.13;;;19.56;62.40
72038;BME280;59900;50.788;12.904;2023-08-06T12:37:26;96271.19;;;19.62;62.54
72038;BME280;59900;50.788;12.904;2023-08-06T12:39:51;96277.91;;;19.59;63.14
72038;BME280;59900;50.788;12.904;2023-08-06T12:42:16;96269.72;;;19.74;62.76
72038;BME280;59900;50.788;12.904;2023-08-06T12:44:42;96269.97;;;19.96;63.03
72038;BME280;59900;50.788;12.904;2023-08-06T12:47:07;96261.53;;;20.13;63.31
72038;BME280;59900;50.788;12.904;2023-08-06T12:49:33;96280.47;;;20.11;62.20
72038;BME280;59900;50.788;12.904;2023-08-06T12:51:58;96268.16;;;20.16;62.21
72038;BME280;59900;50.788;12.904;2023-08-06T12:54:25;96267.50;;;20.24;61.11
72038;BME280;59900;50.788;12.904;2023-08-06T12:56:51;96263.22;;;20.28;61.94
72038;BME280;59900;50.788;12.904;2023-08-06T12:59:17;96255.78;;;20.43;61.47
72038;BME280;59900;50.788;12.904;2023-08-06T13:01:43;96262.69;;;20.63;60.84
72038;BME280;59900;50.788;12.904;2023-08-06T13:04:09;96265.13;;;20.78;58.37